createdAt,value
2023-02-28T00:00:23.144Z,72.80
2023-02-28T00:01:45.042Z,73.19
2023-02-28T00:02:47.318Z,72.94
2023-02-28T00:03:49.867Z,72.98
2023-02-28T00:04:53.325Z,73.21
2023-02-28T00:05:54.951Z,73.14
2023-02-28T00:06:56.550Z,73.03
2023-02-28T00:07:58.082Z,72.82
2023-02-28T00:08:59.522Z,72.63
2023-02-28T00:10:01.539Z,72.62
2023-02-28T00:11:04.743Z,72.55
2023-02-28T00:12:10.411Z,72.62
2023-02-28T00:13:12.166Z,72.55
2023-02-28T00:14:13.658Z,72.54
2023-02-28T00:15:15.356Z,72.59
2023-02-28T00:16:20.630Z,72.50
2023-02-28T00:17:22.662Z,72.69
2023-02-28T00:18:24.124Z,72.68
2023-02-28T00:19:25.539Z,72.78
2023-02-28T00:20:27.379Z,72.85
2023-02-28T00:21:29.157Z,72.93
2023-02-28T00:22:31.136Z,72.94
2023-02-28T00:23:33.737Z,72.92
2023-02-28T00:24:35.342Z,72.91
2023-02-28T00:25:36.788Z,73.00
2023-02-28T00:26:38.406Z,72.78
2023-02-28T00:27:40.952Z,72.72
2023-02-28T00:28:42.855Z,72.83
2023-02-28T00:29:46.847Z,72.87
2023-02-28T00:30:48.486Z,72.52
2023-02-28T00:31:50.286Z,72.54
2023-02-28T00:32:51.840Z,72.51
2023-02-28T00:33:53.299Z,72.40
2023-02-28T00:34:56.539Z,72.56
2023-02-28T00:36:09.084Z,72.55
2023-02-28T00:37:12.560Z,72.87
2023-02-28T00:38:15.021Z,72.93
2023-02-28T00:39:16.684Z,72.63
2023-02-28T00:40:18.201Z,72.42
2023-02-28T00:41:19.777Z,72.51
2023-02-28T00:42:23.379Z,72.54
2023-02-28T00:43:25.050Z,72.53
2023-02-28T00:44:26.677Z,72.47
2023-02-28T00:45:28.458Z,72.55
2023-02-28T00:46:29.993Z,72.48
2023-02-28T00:47:33.545Z,72.67
2023-02-28T00:48:35.741Z,72.54
2023-02-28T00:49:38.486Z,72.75
2023-02-28T00:50:39.920Z,72.73
2023-02-28T00:51:41.360Z,72.48
2023-02-28T00:52:42.893Z,72.36
2023-02-28T00:53:44.533Z,72.41
2023-02-28T00:54:46.074Z,72.44
2023-02-28T00:55:50.910Z,72.55
2023-02-28T00:56:52.464Z,72.50
2023-02-28T00:57:54.235Z,72.44
2023-02-28T00:58:55.852Z,72.44
2023-02-28T00:59:58.307Z,72.31
2023-02-28T01:01:00.002Z,72.40
2023-02-28T01:02:01.580Z,72.44
2023-02-28T01:03:03.299Z,72.38
2023-02-28T01:04:05.307Z,72.31
2023-02-28T01:05:07.334Z,72.30
2023-02-28T01:06:08.895Z,72.57
2023-02-28T01:07:10.356Z,72.46
2023-02-28T01:08:12.578Z,72.50
2023-02-28T01:09:14.317Z,72.50
2023-02-28T01:10:17.266Z,72.65
2023-02-28T01:11:19.064Z,72.63
2023-02-28T01:12:20.614Z,72.50
2023-02-28T01:13:23.512Z,72.70
2023-02-28T01:14:25.273Z,72.72
2023-02-28T01:15:26.887Z,72.68
2023-02-28T01:16:28.544Z,72.62
2023-02-28T01:17:30.061Z,72.51
2023-02-28T01:18:31.798Z,72.56
2023-02-28T01:19:33.777Z,72.62
2023-02-28T01:20:37.556Z,72.64
2023-02-28T01:21:39.034Z,72.72
2023-02-28T01:22:40.846Z,72.81
2023-02-28T01:23:43.905Z,72.76
2023-02-28T01:24:48.010Z,72.68
2023-02-28T01:25:53.127Z,72.60
2023-02-28T01:26:54.683Z,72.56
2023-02-28T01:27:56.754Z,72.64
2023-02-28T01:28:58.379Z,72.62
2023-02-28T01:30:00.743Z,72.65
2023-02-28T01:31:02.565Z,72.70
2023-02-28T01:32:04.445Z,72.72
2023-02-28T01:33:06.006Z,72.70
2023-02-28T01:34:07.665Z,72.69
2023-02-28T01:35:09.316Z,72.69
2023-02-28T01:36:14.003Z,72.83
2023-02-28T01:37:15.519Z,72.83
2023-02-28T01:38:23.323Z,72.83
2023-02-28T01:39:26.842Z,72.79
2023-02-28T01:40:28.548Z,72.74
2023-02-28T01:41:33.191Z,72.65
2023-02-28T01:42:35.756Z,72.82
2023-02-28T01:43:43.722Z,72.87
2023-02-28T01:45:28.680Z,72.69
2023-02-28T01:46:35.608Z,73.12
2023-02-28T01:47:42.011Z,73.29
2023-02-28T01:49:07.512Z,73.34
2023-02-28T01:50:23.267Z,73.80
2023-02-28T01:51:34.656Z,73.72
2023-02-28T01:52:36.799Z,73.38
2023-02-28T01:53:44.657Z,73.19
2023-02-28T01:54:54.456Z,73.10
2023-02-28T01:55:56.632Z,73.03
2023-02-28T01:57:20.707Z,73.15
2023-02-28T01:58:22.871Z,73.57
2023-02-28T01:59:46.818Z,73.46
2023-02-28T02:00:49.113Z,73.66
2023-02-28T02:01:50.756Z,73.44
2023-02-28T02:02:58.417Z,73.16
2023-02-28T02:04:02.842Z,73.02
2023-02-28T02:05:07.798Z,73.02
2023-02-28T02:06:09.289Z,73.08
2023-02-28T02:07:13.122Z,72.99
2023-02-28T02:08:22.106Z,72.95
2023-02-28T02:09:23.839Z,73.04
2023-02-28T02:10:31.847Z,72.97
2023-02-28T02:11:35.684Z,72.96
2023-02-28T02:13:02.605Z,73.00
2023-02-28T02:14:16.086Z,72.95
2023-02-28T02:15:34.393Z,73.24
2023-02-28T02:17:05.298Z,73.47
2023-02-28T02:18:12.670Z,73.93
2023-02-28T02:19:42.228Z,75.52
2023-02-28T02:21:11.336Z,75.00
2023-02-28T02:22:28.816Z,74.69
2023-02-28T02:24:08.918Z,74.32
2023-02-28T02:25:26.192Z,74.83
2023-02-28T02:26:42.794Z,74.44
2023-02-28T02:28:21.305Z,74.31
2023-02-28T02:29:43.073Z,74.28
2023-02-28T02:31:46.085Z,74.22
2023-02-28T02:32:56.737Z,75.55
2023-02-28T02:34:25.428Z,74.70
2023-02-28T02:35:52.859Z,74.05
2023-02-28T02:37:09.228Z,74.45
2023-02-28T02:38:26.906Z,74.18
2023-02-28T02:39:37.187Z,73.89
2023-02-28T02:40:47.331Z,73.97
2023-02-28T02:41:51.804Z,73.91
2023-02-28T02:43:02.482Z,73.74
2023-02-28T02:44:28.588Z,73.66
2023-02-28T02:45:38.256Z,74.19
2023-02-28T02:46:45.133Z,73.87
2023-02-28T02:47:48.428Z,73.55
2023-02-28T02:48:53.473Z,73.34
2023-02-28T02:49:59.636Z,73.25
2023-02-28T02:51:12.082Z,73.11
2023-02-28T02:52:18.923Z,73.32
2023-02-28T02:53:27.318Z,73.31
2023-02-28T02:54:32.481Z,73.22
2023-02-28T02:55:39.728Z,73.12
2023-02-28T02:56:43.741Z,73.15
2023-02-28T02:57:54.929Z,73.07
2023-02-28T02:59:03.333Z,72.99
2023-02-28T03:00:09.117Z,73.00
2023-02-28T03:01:18.133Z,72.98
2023-02-28T03:02:23.527Z,73.02
2023-02-28T03:03:31.867Z,73.12
2023-02-28T03:04:38.908Z,73.33
2023-02-28T03:05:47.746Z,73.23
2023-02-28T03:06:55.204Z,73.03
2023-02-28T03:07:56.812Z,73.02
2023-02-28T03:09:00.010Z,72.99
2023-02-28T03:10:01.688Z,73.03
2023-02-28T03:11:06.346Z,73.04
2023-02-28T03:12:12.871Z,72.93
2023-02-28T03:13:35.363Z,73.01
2023-02-28T03:15:01.744Z,73.35
2023-02-28T03:16:28.119Z,73.88
2023-02-28T03:17:38.742Z,74.14
2023-02-28T03:18:42.939Z,73.71
2023-02-28T03:20:19.635Z,75.36
2023-02-28T03:21:53.438Z,74.80
2023-02-28T03:23:19.890Z,74.86
2023-02-28T03:24:33.509Z,74.62
2023-02-28T03:25:59.654Z,74.22
2023-02-28T03:27:21.624Z,74.47
2023-02-28T03:28:38.006Z,74.29
2023-02-28T03:29:51.717Z,74.28
2023-02-28T03:31:04.153Z,73.97
2023-02-28T03:32:26.200Z,73.70
2023-02-28T03:33:36.509Z,73.75
2023-02-28T03:34:43.787Z,73.70
2023-02-28T03:35:56.382Z,73.82
2023-02-28T03:37:04.751Z,73.63
2023-02-28T03:38:19.825Z,73.17
2023-02-28T03:39:27.314Z,73.26
2023-02-28T03:40:33.420Z,73.31
2023-02-28T03:41:46.753Z,73.12
2023-02-28T03:43:00.244Z,73.10
2023-02-28T03:44:09.590Z,73.19
2023-02-28T03:45:15.282Z,73.05
2023-02-28T03:46:21.679Z,73.04
2023-02-28T03:47:29.838Z,72.93
2023-02-28T03:48:38.849Z,72.88
2023-02-28T03:49:46.044Z,73.03
2023-02-28T03:50:56.061Z,73.04
2023-02-28T03:52:01.811Z,73.05
2023-02-28T03:53:09.591Z,73.08
2023-02-28T03:54:18.440Z,73.07
2023-02-28T03:55:21.262Z,73.03
2023-02-28T03:56:31.557Z,73.01
2023-02-28T03:57:59.409Z,72.97
2023-02-28T03:59:07.344Z,73.20
2023-02-28T04:00:29.198Z,73.14
2023-02-28T04:01:41.919Z,73.51
2023-02-28T04:02:43.872Z,73.46
2023-02-28T04:03:45.631Z,73.18
2023-02-28T04:04:48.654Z,72.98
2023-02-28T04:05:54.968Z,72.88
2023-02-28T04:07:07.943Z,72.96
2023-02-28T04:08:09.382Z,72.93
2023-02-28T04:09:13.594Z,73.00
2023-02-28T04:10:16.746Z,73.06
2023-02-28T04:11:33.390Z,72.81
2023-02-28T04:12:34.914Z,72.82
2023-02-28T04:13:36.446Z,72.70
2023-02-28T04:14:38.020Z,72.75
2023-02-28T04:15:39.609Z,72.88
2023-02-28T04:16:42.485Z,72.54
2023-02-28T04:17:44.172Z,72.80
2023-02-28T04:18:45.652Z,72.91
2023-02-28T04:19:47.361Z,72.79
2023-02-28T04:20:48.996Z,72.73
2023-02-28T04:21:52.248Z,72.80
2023-02-28T04:22:53.818Z,72.96
2023-02-28T04:23:55.838Z,72.35
2023-02-28T04:24:57.351Z,72.70
2023-02-28T04:25:59.285Z,73.04
2023-02-28T04:27:01.514Z,72.94
2023-02-28T04:28:03.094Z,72.84
2023-02-28T04:29:05.945Z,72.78
2023-02-28T04:30:08.100Z,72.72
2023-02-28T04:31:12.249Z,72.73
2023-02-28T04:32:13.920Z,72.72
2023-02-28T04:33:15.455Z,72.77
2023-02-28T04:34:19.240Z,72.70
2023-02-28T04:35:20.674Z,72.67
2023-02-28T04:36:23.565Z,72.60
2023-02-28T04:37:29.020Z,72.71
2023-02-28T04:38:33.513Z,72.78
2023-02-28T04:39:36.670Z,72.68
2023-02-28T04:40:38.395Z,72.58
2023-02-28T04:41:39.994Z,72.53
2023-02-28T04:42:41.508Z,72.59
2023-02-28T04:43:43.151Z,72.55
2023-02-28T04:44:44.644Z,72.50
2023-02-28T04:45:46.303Z,72.48
2023-02-28T04:46:49.179Z,72.45
2023-02-28T04:47:50.698Z,72.38
2023-02-28T04:48:52.230Z,72.31
2023-02-28T04:49:53.917Z,72.22
2023-02-28T04:50:55.648Z,72.19
2023-02-28T04:51:57.461Z,72.21
2023-02-28T04:52:59.070Z,72.28
2023-02-28T04:54:00.588Z,72.28
2023-02-28T04:55:02.133Z,72.19
2023-02-28T04:56:04.870Z,72.15
2023-02-28T04:57:06.525Z,72.16
2023-02-28T04:58:09.998Z,72.05
2023-02-28T04:59:11.651Z,72.09
2023-02-28T05:00:15.628Z,72.05
2023-02-28T05:01:22.201Z,72.08
2023-02-28T05:02:24.145Z,71.95
2023-02-28T05:03:27.776Z,72.15
2023-02-28T05:04:29.615Z,72.14
2023-02-28T05:05:31.223Z,72.05
2023-02-28T05:06:33.552Z,71.97
2023-02-28T05:07:35.533Z,71.95
2023-02-28T05:08:37.107Z,71.95
2023-02-28T05:09:38.672Z,71.84
2023-02-28T05:10:40.182Z,71.89
2023-02-28T05:11:42.118Z,71.97
2023-02-28T05:12:43.802Z,72.05
2023-02-28T05:13:46.176Z,72.05
2023-02-28T05:14:47.707Z,72.04
2023-02-28T05:15:49.739Z,72.05
2023-02-28T05:16:51.448Z,72.22
2023-02-28T05:17:53.198Z,72.13
2023-02-28T05:18:54.891Z,72.01
2023-02-28T05:20:06.460Z,72.17
2023-02-28T05:21:26.663Z,72.38
2023-02-28T05:22:28.690Z,72.39
2023-02-28T05:23:30.432Z,72.50
2023-02-28T05:24:32.352Z,72.54
2023-02-28T05:25:33.887Z,72.39
2023-02-28T05:26:41.275Z,72.34
2023-02-28T05:27:42.975Z,72.51
2023-02-28T05:28:44.503Z,72.73
2023-02-28T05:29:46.081Z,72.39
2023-02-28T05:30:47.760Z,72.53
2023-02-28T05:31:49.669Z,72.69
2023-02-28T05:32:52.073Z,72.72
2023-02-28T05:33:53.852Z,72.33
2023-02-28T05:34:55.396Z,72.55
2023-02-28T05:35:57.000Z,72.53
2023-02-28T05:36:58.604Z,72.66
2023-02-28T05:38:00.284Z,72.74
2023-02-28T05:39:02.031Z,72.51
2023-02-28T05:40:10.510Z,72.55
2023-02-28T05:41:12.106Z,72.61
2023-02-28T05:42:13.589Z,72.51
2023-02-28T05:43:15.619Z,72.52
2023-02-28T05:44:17.092Z,72.69
2023-02-28T05:45:18.580Z,72.68
2023-02-28T05:46:20.348Z,72.72
2023-02-28T05:47:21.820Z,72.73
2023-02-28T05:48:23.660Z,72.89
2023-02-28T05:49:25.358Z,72.64
2023-02-28T05:50:26.936Z,72.59
2023-02-28T05:51:29.174Z,72.47
2023-02-28T05:52:30.862Z,72.72
2023-02-28T05:53:33.337Z,72.52
2023-02-28T05:54:35.381Z,72.47
2023-02-28T05:55:37.819Z,72.56
2023-02-28T05:56:41.012Z,72.56
2023-02-28T05:57:42.800Z,72.73
2023-02-28T05:58:44.436Z,72.57
2023-02-28T05:59:45.952Z,72.47
2023-02-28T06:00:48.160Z,72.43
2023-02-28T06:01:50.097Z,72.61
2023-02-28T06:02:53.678Z,72.58
2023-02-28T06:03:55.360Z,72.44
2023-02-28T06:04:56.947Z,72.29
2023-02-28T06:05:59.105Z,72.48
2023-02-28T06:07:02.253Z,72.78
2023-02-28T06:08:04.997Z,72.82
2023-02-28T06:09:07.195Z,72.36
2023-02-28T06:10:11.001Z,72.47
2023-02-28T06:11:12.970Z,72.14
2023-02-28T06:12:14.620Z,72.24
2023-02-28T06:13:16.236Z,72.43
2023-02-28T06:14:19.397Z,72.44
2023-02-28T06:15:21.314Z,72.33
2023-02-28T06:16:24.246Z,72.44
2023-02-28T06:17:26.089Z,72.36
2023-02-28T06:18:27.843Z,72.26
2023-02-28T06:19:30.560Z,72.48
2023-02-28T06:20:32.357Z,72.30
2023-02-28T06:21:33.922Z,72.05
2023-02-28T06:22:36.652Z,71.90
2023-02-28T06:23:38.234Z,71.74
2023-02-28T06:24:39.853Z,71.67
2023-02-28T06:25:45.879Z,71.36
2023-02-28T06:26:47.745Z,71.34
2023-02-28T06:27:49.659Z,71.97
2023-02-28T06:28:51.453Z,71.86
2023-02-28T06:29:56.356Z,71.32
2023-02-28T06:30:58.368Z,71.65
2023-02-28T06:32:00.175Z,71.73
2023-02-28T06:33:01.750Z,71.45
2023-02-28T06:34:03.351Z,71.28
2023-02-28T06:35:05.241Z,71.07
2023-02-28T06:36:08.080Z,71.05
2023-02-28T06:37:09.679Z,71.24
2023-02-28T06:38:11.214Z,71.06
2023-02-28T06:39:12.733Z,70.74
2023-02-28T06:40:15.030Z,71.04
2023-02-28T06:41:16.724Z,70.94
2023-02-28T06:42:18.313Z,70.68
2023-02-28T06:43:20.009Z,70.66
2023-02-28T06:44:22.129Z,70.70
2023-02-28T06:45:23.675Z,70.73
2023-02-28T06:46:25.275Z,70.29
2023-02-28T06:47:26.912Z,70.95
2023-02-28T06:48:29.005Z,70.58
2023-02-28T06:49:35.200Z,70.67
2023-02-28T06:50:37.576Z,70.66
2023-02-28T06:51:41.927Z,70.69
2023-02-28T06:52:43.442Z,70.50
2023-02-28T06:53:45.180Z,70.22
2023-02-28T06:54:46.955Z,70.24
2023-02-28T06:55:48.413Z,70.09
2023-02-28T06:56:49.993Z,70.15
2023-02-28T06:57:51.506Z,70.24
2023-02-28T06:58:56.466Z,69.81
2023-02-28T07:00:03.615Z,69.96
2023-02-28T07:01:06.380Z,70.16
2023-02-28T07:02:08.568Z,70.13
2023-02-28T07:03:11.261Z,70.07
2023-02-28T07:04:13.429Z,69.98
2023-02-28T07:05:14.902Z,70.81
2023-02-28T07:06:18.222Z,70.55
2023-02-28T07:07:19.865Z,70.50
2023-02-28T07:08:21.242Z,70.01
2023-02-28T07:09:23.340Z,70.07
2023-02-28T07:10:25.093Z,70.46
2023-02-28T07:11:28.192Z,69.88
2023-02-28T07:12:30.363Z,70.16
2023-02-28T07:13:32.247Z,70.14
2023-02-28T07:14:33.672Z,70.65
2023-02-28T07:15:38.476Z,70.55
2023-02-28T07:16:41.612Z,70.09
2023-02-28T07:17:43.995Z,69.42
2023-02-28T07:18:45.634Z,69.81
2023-02-28T07:19:47.367Z,69.10
2023-02-28T07:20:48.948Z,68.89
2023-02-28T07:21:50.406Z,69.06
2023-02-28T07:22:56.581Z,68.59
2023-02-28T07:23:58.246Z,68.51
2023-02-28T07:24:59.722Z,67.95
2023-02-28T07:26:01.488Z,67.82
2023-02-28T07:27:03.309Z,68.14
2023-02-28T07:28:05.069Z,67.87
2023-02-28T07:29:06.539Z,67.90
2023-02-28T07:30:08.532Z,67.58
2023-02-28T07:31:11.144Z,67.51
2023-02-28T07:32:12.797Z,67.87
2023-02-28T07:33:14.433Z,68.08
2023-02-28T07:34:16.066Z,67.63
2023-02-28T07:35:17.693Z,67.57
2023-02-28T07:36:19.117Z,67.30
2023-02-28T07:37:20.835Z,68.17
2023-02-28T07:38:22.442Z,67.85
2023-02-28T07:39:24.112Z,67.57
2023-02-28T07:40:26.345Z,67.30
2023-02-28T07:41:28.134Z,67.42
2023-02-28T07:42:29.838Z,67.31
2023-02-28T07:43:33.153Z,67.47
2023-02-28T07:44:34.750Z,67.35
2023-02-28T07:45:36.387Z,67.10
2023-02-28T07:46:38.735Z,66.82
2023-02-28T07:47:42.017Z,66.93
2023-02-28T07:48:44.636Z,66.69
2023-02-28T07:49:46.102Z,66.51
2023-02-28T07:50:55.853Z,66.75
2023-02-28T07:51:57.425Z,66.31
2023-02-28T07:52:59.722Z,66.26
2023-02-28T07:54:01.385Z,66.81
2023-02-28T07:55:03.239Z,66.96
2023-02-28T07:56:05.358Z,66.65
2023-02-28T07:57:06.910Z,66.36
2023-02-28T07:58:08.438Z,66.52
2023-02-28T07:59:10.127Z,66.89
2023-02-28T08:00:13.961Z,65.44
2023-02-28T08:01:15.830Z,65.81
2023-02-28T08:02:19.034Z,66.01
2023-02-28T08:03:22.197Z,65.38
2023-02-28T08:04:23.835Z,65.44
2023-02-28T08:05:25.475Z,65.89
2023-02-28T08:06:27.010Z,65.87
2023-02-28T08:07:28.520Z,65.60
2023-02-28T08:08:31.547Z,66.22
2023-02-28T08:09:34.393Z,66.41
2023-02-28T08:10:36.468Z,65.91
2023-02-28T08:11:38.018Z,65.91
2023-02-28T08:12:39.465Z,65.31
2023-02-28T08:13:42.611Z,65.36
2023-02-28T08:14:44.158Z,64.83
2023-02-28T08:15:47.700Z,64.74
2023-02-28T08:16:49.247Z,65.43
2023-02-28T08:17:50.701Z,65.13
2023-02-28T08:18:53.154Z,65.30
2023-02-28T08:19:54.846Z,65.27
2023-02-28T08:20:57.762Z,65.33
2023-02-28T08:21:59.172Z,64.91
2023-02-28T08:23:00.668Z,65.27
2023-02-28T08:24:02.227Z,64.85
2023-02-28T08:25:04.237Z,64.80
2023-02-28T08:26:05.799Z,64.80
2023-02-28T08:27:07.232Z,65.17
2023-02-28T08:28:08.819Z,64.65
2023-02-28T08:29:10.340Z,64.52
2023-02-28T08:30:13.476Z,63.80
2023-02-28T08:31:17.246Z,63.88
2023-02-28T08:32:29.540Z,63.64
2023-02-28T08:33:31.756Z,63.27
2023-02-28T08:34:34.070Z,63.32
2023-02-28T08:35:37.480Z,63.88
2023-02-28T08:36:39.999Z,63.98
2023-02-28T08:37:41.543Z,63.76
2023-02-28T08:38:43.104Z,63.41
2023-02-28T08:39:44.679Z,63.83
2023-02-28T08:40:46.292Z,63.95
2023-02-28T08:41:51.151Z,63.54
2023-02-28T08:42:55.037Z,63.88
2023-02-28T08:43:56.660Z,63.20
2023-02-28T08:44:58.341Z,62.76
2023-02-28T08:46:00.043Z,62.91
2023-02-28T08:47:01.628Z,62.77
2023-02-28T08:48:03.511Z,62.59
2023-02-28T08:49:05.043Z,62.98
2023-02-28T08:50:07.559Z,62.91
2023-02-28T08:51:12.511Z,62.56
2023-02-28T08:52:14.045Z,62.78
2023-02-28T08:53:15.757Z,62.72
2023-02-28T08:54:19.657Z,62.01
2023-02-28T08:55:21.303Z,61.95
2023-02-28T08:56:22.870Z,62.41
2023-02-28T08:57:26.531Z,62.24
2023-02-28T08:58:28.570Z,62.01
2023-02-28T08:59:30.279Z,62.12
2023-02-28T09:00:32.444Z,62.23
2023-02-28T09:01:34.319Z,62.64
2023-02-28T09:02:36.222Z,62.37
2023-02-28T09:03:38.248Z,62.28
2023-02-28T09:04:39.675Z,62.72
2023-02-28T09:05:41.323Z,62.42
2023-02-28T09:06:42.874Z,62.52
2023-02-28T09:07:44.449Z,62.25
2023-02-28T09:08:46.193Z,62.41
2023-02-28T09:09:57.995Z,61.41
2023-02-28T09:11:01.635Z,61.83
2023-02-28T09:12:05.431Z,61.48
2023-02-28T09:13:07.295Z,60.68
2023-02-28T09:14:08.829Z,61.37
2023-02-28T09:15:10.958Z,60.82
2023-02-28T09:16:15.447Z,61.43
2023-02-28T09:17:17.760Z,61.35
2023-02-28T09:18:19.740Z,61.09
2023-02-28T09:19:21.176Z,61.41
2023-02-28T09:20:22.658Z,60.84
2023-02-28T09:21:24.400Z,60.76
2023-02-28T09:22:25.840Z,60.49
2023-02-28T09:23:27.381Z,60.94
2023-02-28T09:24:28.902Z,60.64
2023-02-28T09:25:30.342Z,60.64
2023-02-28T09:26:35.395Z,59.37
2023-02-28T09:27:45.915Z,59.62
2023-02-28T09:28:47.548Z,59.42
2023-02-28T09:29:49.058Z,59.55
2023-02-28T09:30:54.315Z,59.58
2023-02-28T09:31:59.010Z,60.17
2023-02-28T09:33:00.654Z,60.29
2023-02-28T09:34:02.329Z,60.86
2023-02-28T09:35:04.631Z,61.25
2023-02-28T09:36:06.736Z,61.41
2023-02-28T09:37:08.213Z,61.71
2023-02-28T09:38:10.555Z,62.04
2023-02-28T09:39:15.566Z,62.38
2023-02-28T09:40:18.382Z,62.47
2023-02-28T09:41:25.974Z,62.97
2023-02-28T09:42:33.929Z,62.39
2023-02-28T09:43:40.495Z,62.73
2023-02-28T09:44:47.170Z,61.80
2023-02-28T09:45:58.942Z,61.85
2023-02-28T09:47:45.529Z,61.08
2023-02-28T09:48:49.768Z,61.77
2023-02-28T09:49:51.443Z,61.18
2023-02-28T09:51:01.130Z,60.51
2023-02-28T09:52:12.317Z,60.40
2023-02-28T09:53:27.494Z,59.88
2023-02-28T09:54:32.393Z,60.61
2023-02-28T09:55:46.571Z,59.44
2023-02-28T09:56:54.395Z,58.84
2023-02-28T09:57:57.859Z,59.95
2023-02-28T09:59:06.097Z,59.90
2023-02-28T10:00:19.221Z,59.99
2023-02-28T10:01:32.384Z,60.05
2023-02-28T10:03:01.007Z,61.12
2023-02-28T10:04:16.495Z,61.20
2023-02-28T10:05:49.984Z,61.94
2023-02-28T10:06:53.274Z,61.75
2023-02-28T10:08:08.611Z,62.04
2023-02-28T10:09:25.149Z,62.72
2023-02-28T10:10:33.202Z,61.83
2023-02-28T10:11:38.050Z,61.06
2023-02-28T10:12:43.723Z,61.04
2023-02-28T10:14:01.755Z,60.67
2023-02-28T10:15:04.535Z,61.13
2023-02-28T10:16:10.897Z,60.68
2023-02-28T10:17:20.226Z,59.83
2023-02-28T10:18:27.772Z,59.35
2023-02-28T10:19:43.291Z,58.17
2023-02-28T10:20:45.511Z,58.03
2023-02-28T10:21:55.584Z,57.90
2023-02-28T10:23:09.009Z,58.04
2023-02-28T10:24:23.653Z,59.00
2023-02-28T10:25:28.794Z,58.75
2023-02-28T10:26:32.706Z,59.61
2023-02-28T10:27:34.568Z,59.17
2023-02-28T10:28:36.503Z,59.89
2023-02-28T10:29:44.086Z,59.90
2023-02-28T10:30:51.916Z,59.13
2023-02-28T10:31:53.644Z,59.48
2023-02-28T10:32:55.672Z,58.45
2023-02-28T10:33:57.422Z,57.61
2023-02-28T10:35:34.173Z,58.56
2023-02-28T10:36:36.368Z,58.67
2023-02-28T10:37:39.522Z,58.59
2023-02-28T10:38:41.368Z,58.96
2023-02-28T10:39:46.216Z,58.20
2023-02-28T10:40:48.419Z,59.43
2023-02-28T10:41:50.253Z,59.46
2023-02-28T10:42:57.278Z,59.39
2023-02-28T10:44:21.686Z,59.03
2023-02-28T10:45:25.064Z,58.92
2023-02-28T10:46:34.562Z,59.16
2023-02-28T10:47:54.016Z,59.34
2023-02-28T10:49:06.982Z,58.55
2023-02-28T10:50:46.861Z,58.81
2023-02-28T10:51:58.728Z,58.57
2023-02-28T10:53:28.292Z,58.75
2023-02-28T10:54:38.082Z,58.80
2023-02-28T10:55:39.808Z,58.69
2023-02-28T10:56:42.075Z,58.75
2023-02-28T10:57:44.134Z,58.12
2023-02-28T10:58:51.529Z,58.00
2023-02-28T11:00:05.977Z,57.97
2023-02-28T11:01:14.498Z,58.27
2023-02-28T11:03:36.061Z,58.41
2023-02-28T11:04:39.789Z,58.52
2023-02-28T11:05:42.852Z,58.68
2023-02-28T11:06:44.887Z,57.63
2023-02-28T11:07:53.737Z,58.20
2023-02-28T11:09:00.837Z,56.96
2023-02-28T11:10:04.562Z,57.54
2023-02-28T11:11:08.186Z,57.70
2023-02-28T11:12:23.678Z,56.77
2023-02-28T11:13:32.306Z,57.84
2023-02-28T11:14:48.336Z,57.13
2023-02-28T11:15:56.689Z,57.25
2023-02-28T11:17:12.158Z,57.03
2023-02-28T11:18:13.841Z,57.16
2023-02-28T11:19:26.119Z,56.21
2023-02-28T11:20:32.032Z,56.62
2023-02-28T11:21:40.554Z,57.43
2023-02-28T11:22:46.634Z,58.11
2023-02-28T11:23:51.553Z,57.73
2023-02-28T11:24:55.416Z,57.31
2023-02-28T11:26:00.281Z,57.73
2023-02-28T11:27:02.348Z,57.51
2023-02-28T11:28:36.072Z,57.08
2023-02-28T11:29:47.605Z,57.85
2023-02-28T11:31:12.088Z,57.06
2023-02-28T11:32:17.053Z,55.97
2023-02-28T11:33:32.230Z,56.21
2023-02-28T11:34:33.905Z,55.96
2023-02-28T11:35:39.831Z,56.06
2023-02-28T11:36:44.882Z,55.71
2023-02-28T11:37:46.496Z,55.83
2023-02-28T11:38:49.971Z,55.45
2023-02-28T11:39:51.516Z,55.12
2023-02-28T11:40:56.113Z,54.00
2023-02-28T11:42:06.657Z,53.82
2023-02-28T11:43:21.303Z,54.27
2023-02-28T11:45:01.621Z,54.58
2023-02-28T11:46:06.107Z,55.82
2023-02-28T11:47:17.691Z,53.55
2023-02-28T11:48:35.101Z,52.70
2023-02-28T11:50:04.322Z,51.29
2023-02-28T11:51:32.665Z,50.17
2023-02-28T11:52:45.853Z,49.53
2023-02-28T11:53:50.191Z,52.83
2023-02-28T11:55:37.068Z,51.94
2023-02-28T11:56:47.227Z,48.33
2023-02-28T11:58:03.508Z,48.19
2023-02-28T11:59:36.296Z,46.83
2023-02-28T12:01:02.181Z,46.70
2023-02-28T12:02:09.536Z,48.90
2023-02-28T12:03:29.372Z,48.31
2023-02-28T12:04:37.033Z,49.66
2023-02-28T12:05:46.575Z,49.58
2023-02-28T12:07:04.074Z,50.15
2023-02-28T12:08:16.369Z,49.29
2023-02-28T12:09:36.468Z,49.27
2023-02-28T12:10:52.720Z,50.02
2023-02-28T12:12:01.737Z,49.86
2023-02-28T12:13:24.650Z,49.17
2023-02-28T12:14:55.458Z,48.44
2023-02-28T12:16:12.547Z,49.84
2023-02-28T12:17:23.083Z,48.56
2023-02-28T12:18:30.541Z,47.32
2023-02-28T12:19:46.373Z,51.29
2023-02-28T12:20:57.218Z,49.94
2023-02-28T12:22:14.181Z,48.83
2023-02-28T12:23:34.804Z,48.49
2023-02-28T12:24:43.373Z,47.73
2023-02-28T12:26:02.721Z,47.02
2023-02-28T12:27:11.617Z,47.48
2023-02-28T12:28:16.505Z,46.11
2023-02-28T12:29:26.353Z,46.06
2023-02-28T12:30:34.207Z,50.66
2023-02-28T12:31:42.157Z,47.67
2023-02-28T12:32:51.858Z,46.77
2023-02-28T12:34:01.055Z,48.26
2023-02-28T12:35:32.311Z,46.61
2023-02-28T12:36:35.988Z,47.85
2023-02-28T12:37:43.359Z,49.82
2023-02-28T12:38:49.899Z,48.97
2023-02-28T12:40:00.067Z,47.76
2023-02-28T12:41:17.043Z,48.28
2023-02-28T12:42:28.926Z,46.87
2023-02-28T12:43:38.342Z,46.34
2023-02-28T12:44:46.966Z,49.26
2023-02-28T12:46:02.938Z,47.81
2023-02-28T12:47:10.199Z,50.41
2023-02-28T12:48:19.994Z,49.00
2023-02-28T12:50:22.774Z,48.82
2023-02-28T12:51:26.241Z,53.99
2023-02-28T12:52:53.945Z,52.10
2023-02-28T12:54:05.286Z,52.03
2023-02-28T12:55:34.320Z,53.70
2023-02-28T12:57:04.264Z,51.30
2023-02-28T12:58:16.918Z,46.04
2023-02-28T12:59:30.412Z,47.28
2023-02-28T13:00:38.559Z,50.13
2023-02-28T13:01:54.487Z,52.73
2023-02-28T13:03:25.756Z,46.33
2023-02-28T13:05:04.855Z,49.53
2023-02-28T13:06:34.858Z,47.37
2023-02-28T13:08:06.961Z,46.81
2023-02-28T13:09:14.396Z,48.57
2023-02-28T13:10:16.978Z,47.17
2023-02-28T13:11:42.084Z,45.04
2023-02-28T13:12:52.267Z,48.14
2023-02-28T13:14:02.577Z,44.44
2023-02-28T13:15:17.110Z,49.30
2023-02-28T13:16:18.663Z,45.15
2023-02-28T13:17:22.034Z,45.77
2023-02-28T13:18:43.062Z,47.94
2023-02-28T13:19:52.790Z,45.10
2023-02-28T13:20:54.426Z,51.67
2023-02-28T13:21:56.807Z,46.19
2023-02-28T13:22:58.516Z,49.07
2023-02-28T13:24:02.856Z,46.21
2023-02-28T13:25:33.852Z,44.18
2023-02-28T13:26:38.758Z,48.18
2023-02-28T13:27:42.102Z,45.63
2023-02-28T13:28:54.107Z,45.18
2023-02-28T13:29:55.645Z,46.44
2023-02-28T13:30:58.927Z,44.54
2023-02-28T13:32:06.401Z,44.78
2023-02-28T13:33:27.344Z,45.89
2023-02-28T13:34:28.821Z,46.07
2023-02-28T13:35:43.598Z,43.19
2023-02-28T13:36:45.315Z,46.61
2023-02-28T13:37:50.320Z,43.65
2023-02-28T13:38:55.644Z,40.17
2023-02-28T13:40:07.307Z,40.51
2023-02-28T13:41:41.832Z,44.35
2023-02-28T13:42:44.654Z,42.53
2023-02-28T13:44:07.285Z,41.37
2023-02-28T13:45:11.827Z,42.02
2023-02-28T13:46:14.038Z,41.72
2023-02-28T13:47:28.241Z,39.44
2023-02-28T13:48:30.436Z,39.06
2023-02-28T13:49:34.286Z,38.64
2023-02-28T13:50:38.193Z,39.23
2023-02-28T13:51:47.077Z,40.64
2023-02-28T13:53:17.337Z,36.44
2023-02-28T13:55:03.686Z,39.12
2023-02-28T13:56:33.344Z,38.75
2023-02-28T13:58:01.148Z,41.24
2023-02-28T13:59:19.697Z,36.65
2023-02-28T14:00:30.815Z,40.95
2023-02-28T14:01:51.489Z,40.39
2023-02-28T14:03:11.612Z,39.10
2023-02-28T14:04:32.576Z,36.37
2023-02-28T14:05:36.640Z,36.60
2023-02-28T14:06:40.010Z,35.19
2023-02-28T14:07:47.935Z,33.92
2023-02-28T14:08:55.618Z,33.58
2023-02-28T14:10:05.664Z,35.16
2023-02-28T14:11:25.263Z,35.96
2023-02-28T14:12:56.494Z,34.83
2023-02-28T14:13:59.194Z,38.69
2023-02-28T14:15:00.709Z,34.79
2023-02-28T14:16:04.174Z,35.12
2023-02-28T14:17:14.006Z,36.14
2023-02-28T14:18:32.244Z,34.98
2023-02-28T14:19:38.084Z,35.47
2023-02-28T14:20:40.892Z,37.84
2023-02-28T14:22:01.742Z,35.22
2023-02-28T14:23:09.128Z,34.93
2023-02-28T14:24:32.864Z,34.37